createdAt,value
2023-04-15T00:01:36.447Z,99806.72
2023-04-15T00:04:02.881Z,99819.28
2023-04-15T00:06:29.048Z,99813.00
2023-04-15T00:08:55.360Z,99806.34
2023-04-15T00:11:21.475Z,99814.75
2023-04-15T00:13:47.767Z,99810.00
2023-04-15T00:19:32.523Z,99810.84
2023-04-15T00:22:00.064Z,99804.63
2023-04-15T00:24:26.378Z,99812.78
2023-04-15T00:26:52.978Z,99808.00
2023-04-15T00:29:19.646Z,99804.94
2023-04-15T00:31:45.793Z,99809.69
2023-04-15T00:34:12.250Z,99799.69
2023-04-15T00:36:38.609Z,99804.50
2023-04-15T00:39:05.530Z,99806.88
2023-04-15T00:41:33.308Z,99804.16
2023-04-15T00:44:01.612Z,99800.22
2023-04-15T00:46:30.285Z,99806.88
2023-04-15T00:48:56.679Z,99801.44
2023-04-15T00:51:23.768Z,99810.78
2023-04-15T00:53:51.123Z,99799.16
2023-04-15T00:56:19.463Z,99804.22
2023-04-15T00:58:45.877Z,99800.66
2023-04-15T01:01:11.995Z,99799.53
2023-04-15T01:03:38.869Z,99806.28
2023-04-15T01:06:05.242Z,99798.00
2023-04-15T01:08:32.004Z,99815.31
2023-04-15T01:11:02.731Z,99805.00
2023-04-15T01:13:29.864Z,99811.47
2023-04-15T01:15:56.792Z,99810.50
2023-04-15T01:18:23.868Z,99812.53
2023-04-15T01:20:50.313Z,99812.84
2023-04-15T01:23:16.794Z,99810.50
2023-04-15T01:25:43.199Z,99819.00
2023-04-15T01:28:10.221Z,99816.59
2023-04-15T01:30:36.362Z,99821.38
2023-04-15T01:33:02.872Z,99821.72
2023-04-15T01:35:29.137Z,99817.50
2023-04-15T01:38:05.418Z,99814.78
2023-04-15T01:40:31.750Z,99820.41
2023-04-15T01:42:58.753Z,99821.38
2023-04-15T01:45:25.143Z,99823.13
2023-04-15T01:47:51.507Z,99825.94
2023-04-15T01:50:18.513Z,99828.31
2023-04-15T01:52:44.907Z,99823.59
2023-04-15T01:55:11.865Z,99834.00
2023-04-15T01:57:38.383Z,99829.56
2023-04-15T02:00:07.049Z,99820.72
2023-04-15T02:02:40.157Z,99820.94
2023-04-15T02:05:06.708Z,99818.75
2023-04-15T02:07:33.191Z,99820.00
2023-04-15T02:09:59.235Z,99819.56
2023-04-15T02:12:26.396Z,99823.09
2023-04-15T02:14:52.706Z,99824.75
2023-04-15T02:17:19.164Z,99832.28
2023-04-15T02:19:45.247Z,99818.31
2023-04-15T02:22:17.492Z,99826.22
2023-04-15T02:24:46.278Z,99825.72
2023-04-15T02:27:17.406Z,99824.72
2023-04-15T02:29:46.498Z,99829.47
2023-04-15T02:32:14.488Z,99827.97
2023-04-15T02:34:42.060Z,99824.81
2023-04-15T02:37:11.027Z,99827.53
2023-04-15T02:39:37.332Z,99827.16
2023-04-15T02:42:05.230Z,99817.19
2023-04-15T02:44:33.304Z,99819.03
2023-04-15T02:47:04.114Z,99823.16
2023-04-15T02:49:30.326Z,99833.13
2023-04-15T02:51:57.467Z,99823.50
2023-04-15T02:54:24.206Z,99816.91
2023-04-15T02:56:54.443Z,99818.75
2023-04-15T02:59:21.062Z,99817.41
2023-04-15T03:01:47.492Z,99819.06
2023-04-15T03:04:13.713Z,99813.53
2023-04-15T03:06:40.250Z,99821.13
2023-04-15T03:09:08.686Z,99817.59
2023-04-15T03:11:39.941Z,99816.06
2023-04-15T03:14:08.050Z,99813.22
2023-04-15T03:16:37.238Z,99822.53
2023-04-15T03:19:03.814Z,99821.47
2023-04-15T03:21:31.752Z,99826.75
2023-04-15T03:23:57.865Z,99829.28
2023-04-15T03:26:28.827Z,99827.59
2023-04-15T03:28:58.837Z,99840.47
2023-04-15T03:31:25.472Z,99831.66
2023-04-15T03:33:51.535Z,99830.69
2023-04-15T03:36:18.035Z,99839.66
2023-04-15T03:38:44.118Z,99836.75
2023-04-15T03:41:10.447Z,99830.34
2023-04-15T03:43:36.504Z,99835.44
2023-04-15T03:46:03.094Z,99833.91
2023-04-15T03:48:29.200Z,99834.72
2023-04-15T03:50:55.536Z,99837.78
2023-04-15T03:53:22.164Z,99836.75
2023-04-15T03:55:48.571Z,99837.28
2023-04-15T03:58:14.687Z,99828.66
2023-04-15T04:00:41.754Z,99833.91
2023-04-15T04:03:08.042Z,99835.25
2023-04-15T04:05:38.143Z,99840.00
2023-04-15T04:08:04.531Z,99838.16
2023-04-15T04:10:31.236Z,99836.63
2023-04-15T04:12:57.355Z,99837.81
2023-04-15T04:15:23.729Z,99840.19
2023-04-15T04:17:50.123Z,99850.16
2023-04-15T04:20:16.533Z,99849.81
2023-04-15T04:22:42.586Z,99855.94
2023-04-15T04:25:12.031Z,99846.41
2023-04-15T04:27:38.162Z,99847.94
2023-04-15T04:30:06.100Z,99849.81
2023-04-15T04:32:32.253Z,99856.88
2023-04-15T04:34:58.640Z,99857.53
2023-04-15T04:37:24.948Z,99861.25
2023-04-15T04:39:51.305Z,99859.53
2023-04-15T04:42:17.360Z,99860.59
2023-04-15T04:44:43.832Z,99860.94
2023-04-15T04:47:09.866Z,99860.44
2023-04-15T04:49:36.267Z,99863.50
2023-04-15T04:52:02.371Z,99861.94
2023-04-15T04:54:30.028Z,99865.84
2023-04-15T04:56:57.064Z,99862.44
2023-04-15T04:59:24.111Z,99858.03
2023-04-15T05:01:50.629Z,99871.28
2023-04-15T05:04:17.171Z,99871.94
2023-04-15T05:06:43.215Z,99860.94
2023-04-15T05:09:09.806Z,99869.72
2023-04-15T05:11:35.988Z,99867.16
2023-04-15T05:14:02.495Z,99865.16
2023-04-15T05:16:28.574Z,99865.97
2023-04-15T05:18:54.894Z,99872.22
2023-04-15T05:21:21.818Z,99867.84
2023-04-15T05:23:48.180Z,99860.75
2023-04-15T05:26:14.334Z,99859.03
2023-04-15T05:28:40.744Z,99882.59
2023-04-15T05:31:07.288Z,99872.59
2023-04-15T05:33:33.954Z,99861.75
2023-04-15T05:36:00.522Z,99875.94
2023-04-15T05:38:27.132Z,99886.13
2023-04-15T05:40:53.286Z,99872.91
2023-04-15T05:43:20.032Z,99871.72
2023-04-15T05:45:46.822Z,99875.28
2023-04-15T05:48:13.352Z,99882.53
2023-04-15T05:50:42.580Z,99882.72
2023-04-15T05:53:08.968Z,99884.72
2023-04-15T05:55:35.166Z,99880.66
2023-04-15T05:58:02.978Z,99880.47
2023-04-15T06:00:29.331Z,99886.56
2023-04-15T06:02:57.632Z,99900.28
2023-04-15T06:05:24.424Z,99887.41
2023-04-15T06:07:51.525Z,99897.72
2023-04-15T06:10:17.957Z,99894.66
2023-04-15T06:12:45.223Z,99898.66
2023-04-15T06:15:11.427Z,99906.00
2023-04-15T06:17:37.861Z,99899.75
2023-04-15T06:20:04.453Z,99898.91
2023-04-15T06:22:30.877Z,99901.63
2023-04-15T06:24:57.135Z,99908.56
2023-04-15T06:27:23.492Z,99918.22
2023-04-15T06:29:49.693Z,99911.13
2023-04-15T06:32:16.618Z,99919.25
2023-04-15T06:34:42.779Z,99913.81
2023-04-15T06:37:10.662Z,99917.03
2023-04-15T06:39:37.593Z,99926.50
2023-04-15T06:42:04.250Z,99920.22
2023-04-15T06:44:33.302Z,99920.06
2023-04-15T06:47:00.911Z,99929.50
2023-04-15T06:49:27.359Z,99926.50
2023-04-15T06:51:54.021Z,99931.84
2023-04-15T06:54:20.715Z,99938.44
2023-04-15T06:56:47.370Z,99926.09
2023-04-15T06:59:13.570Z,99932.28
2023-04-15T07:01:41.316Z,99932.97
2023-04-15T07:04:07.599Z,99944.50
2023-04-15T07:06:34.994Z,99938.25
2023-04-15T07:09:02.660Z,99943.84
2023-04-15T07:11:29.628Z,99945.19
2023-04-15T07:13:57.484Z,99948.06
2023-04-15T07:16:24.241Z,99948.22
2023-04-15T07:18:50.928Z,99956.81
2023-04-15T07:21:17.729Z,99955.38
2023-04-15T07:23:43.863Z,99964.50
2023-04-15T07:26:10.613Z,99961.28
2023-04-15T07:28:36.867Z,99954.53
2023-04-15T07:31:03.686Z,99962.50
2023-04-15T07:33:30.345Z,99967.38
2023-04-15T07:35:56.787Z,99970.47
2023-04-15T07:38:23.254Z,99969.09
2023-04-15T07:40:50.161Z,99971.75
2023-04-15T07:43:16.569Z,99974.16
2023-04-15T07:45:43.335Z,99970.25
2023-04-15T07:48:10.227Z,99971.13
2023-04-15T07:50:37.339Z,99975.53
2023-04-15T07:53:03.755Z,99977.84
2023-04-15T07:55:30.419Z,99981.34
2023-04-15T07:57:56.622Z,99985.72
2023-04-15T08:00:23.082Z,99986.09
2023-04-15T08:02:49.485Z,99983.16
2023-04-15T08:05:19.389Z,99990.03
2023-04-15T08:07:46.235Z,99989.78
2023-04-15T08:10:12.793Z,99994.56
2023-04-15T08:12:39.014Z,99995.66
2023-04-15T08:15:07.538Z,99997.56
2023-04-15T08:17:33.916Z,100008.16
2023-04-15T08:20:00.622Z,99998.31
2023-04-15T08:22:26.911Z,100005.72
2023-04-15T08:24:53.446Z,100010.25
2023-04-15T08:27:19.733Z,100012.78
2023-04-15T08:29:46.462Z,100010.97
2023-04-15T08:32:12.836Z,100010.84
2023-04-15T08:34:39.507Z,100012.38
2023-04-15T08:37:06.257Z,100012.44
2023-04-15T08:39:32.906Z,100008.91
2023-04-15T08:42:04.947Z,100019.00
2023-04-15T08:44:33.982Z,100028.47
2023-04-15T08:47:02.158Z,100025.47
2023-04-15T08:49:29.251Z,100030.84
2023-04-15T08:51:58.431Z,100028.13
2023-04-15T08:54:26.372Z,100028.66
2023-04-15T08:56:53.117Z,100040.84
2023-04-15T08:59:21.411Z,100037.00
2023-04-15T09:01:50.109Z,100039.28
2023-04-15T09:04:16.896Z,100042.06
2023-04-15T09:06:43.241Z,100045.94
2023-04-15T09:09:10.916Z,100043.28
2023-04-15T09:11:37.164Z,100050.53
2023-04-15T09:14:03.761Z,100049.13
2023-04-15T09:16:30.058Z,100056.97
2023-04-15T09:18:56.575Z,100051.06
2023-04-15T09:21:23.918Z,100057.75
2023-04-15T09:23:56.846Z,100059.31
2023-04-15T09:26:33.889Z,100064.50
2023-04-15T09:29:09.104Z,100060.75
2023-04-15T09:31:40.051Z,100065.72
2023-04-15T09:34:06.869Z,100062.06
2023-04-15T09:36:49.747Z,100056.38
2023-04-15T09:39:18.055Z,100059.44
2023-04-15T09:41:44.596Z,100064.25
2023-04-15T09:44:26.762Z,100067.25
2023-04-15T09:46:53.349Z,100068.47
2023-04-15T09:49:20.250Z,100067.78
2023-04-15T09:51:57.601Z,100063.50
2023-04-15T09:54:38.012Z,100062.66
2023-04-15T09:57:06.201Z,100062.47
2023-04-15T09:59:32.851Z,100065.19
2023-04-15T10:01:59.803Z,100071.94
2023-04-15T10:04:27.927Z,100066.13
2023-04-15T10:06:55.381Z,100067.44
2023-04-15T10:09:21.752Z,100072.03
2023-04-15T10:11:49.797Z,100056.06
2023-04-15T10:14:17.767Z,100082.00
2023-04-15T10:16:48.433Z,100078.19
2023-04-15T10:19:18.584Z,100079.91
2023-04-15T10:21:46.701Z,100085.63
2023-04-15T10:24:14.385Z,100081.13
2023-04-15T10:26:41.858Z,100086.72
2023-04-15T10:29:10.110Z,100089.88
2023-04-15T10:31:37.749Z,100093.41
2023-04-15T10:34:05.977Z,100091.34
2023-04-15T10:36:33.359Z,100106.41
2023-04-15T10:38:59.758Z,100106.34
2023-04-15T10:41:30.525Z,100106.03
2023-04-15T10:44:04.437Z,100108.25
2023-04-15T10:46:44.264Z,100097.78
2023-04-15T10:49:24.465Z,100095.38
2023-04-15T10:51:53.063Z,100102.97
2023-04-15T10:54:24.882Z,100103.19
2023-04-15T10:57:03.389Z,100109.00
2023-04-15T10:59:30.576Z,100100.84
2023-04-15T11:02:02.842Z,100114.19
2023-04-15T11:04:54.478Z,100115.25
2023-04-15T11:07:33.934Z,100118.94
2023-04-15T11:10:01.097Z,100113.47
2023-04-15T11:12:37.670Z,100124.25
2023-04-15T11:15:31.776Z,100117.53
2023-04-15T11:18:08.426Z,100120.81
2023-04-15T11:20:35.417Z,100128.59
2023-04-15T11:23:13.372Z,100124.53
2023-04-15T11:25:42.221Z,100128.50
2023-04-15T11:28:08.960Z,100123.50
2023-04-15T11:30:36.911Z,100136.16
2023-04-15T11:33:05.263Z,100140.91
2023-04-15T11:35:32.830Z,100145.53
2023-04-15T11:38:03.778Z,100145.91
2023-04-15T11:40:32.791Z,100155.72
2023-04-15T11:43:06.405Z,100148.84
2023-04-15T11:45:33.437Z,100154.28
2023-04-15T11:48:07.892Z,100148.50
2023-04-15T11:50:35.525Z,100150.09
2023-04-15T11:53:20.287Z,100142.88
2023-04-15T11:55:52.305Z,100154.41
2023-04-15T11:58:26.012Z,100163.63
2023-04-15T12:00:54.639Z,100158.56
2023-04-15T12:04:00.783Z,100173.91
2023-04-15T12:06:38.214Z,100168.03
2023-04-15T12:09:15.887Z,100175.41
2023-04-15T12:11:48.804Z,100174.28
2023-04-15T12:14:18.924Z,100171.47
2023-04-15T12:16:51.902Z,100175.34
2023-04-15T12:19:25.499Z,100178.00
2023-04-15T12:21:57.814Z,100185.88
2023-04-15T12:24:26.032Z,100180.75
2023-04-15T12:26:55.244Z,100184.50
2023-04-15T12:29:25.991Z,100185.72
2023-04-15T12:31:56.558Z,100190.69
2023-04-15T12:34:33.145Z,100191.56
2023-04-15T12:37:01.035Z,100196.94
2023-04-15T12:39:30.923Z,100196.19
2023-04-15T12:42:01.010Z,100199.28
2023-04-15T12:44:28.086Z,100201.31
2023-04-15T12:46:55.083Z,100200.69
2023-04-15T12:49:23.681Z,100201.06
2023-04-15T12:51:52.071Z,100201.25
2023-04-15T12:54:21.513Z,100205.13
2023-04-15T12:56:49.695Z,100208.97
2023-04-15T12:59:20.493Z,100208.34
2023-04-15T13:01:48.161Z,100217.91
2023-04-15T13:04:15.656Z,100207.22
2023-04-15T13:06:42.553Z,100212.00
2023-04-15T13:09:09.121Z,100220.34
2023-04-15T13:11:35.897Z,100215.63
2023-04-15T13:14:07.779Z,100221.81
2023-04-15T13:16:34.418Z,100219.44
2023-04-15T13:19:02.565Z,100221.16
2023-04-15T13:21:28.911Z,100223.19
2023-04-15T13:23:55.391Z,100222.78
2023-04-15T13:26:21.734Z,100218.94
2023-04-15T13:28:48.399Z,100227.00
2023-04-15T13:31:15.669Z,100228.50
2023-04-15T13:33:43.648Z,100230.75
2023-04-15T13:36:12.434Z,100227.56
2023-04-15T13:38:40.349Z,100228.75
2023-04-15T13:41:07.146Z,100228.47
2023-04-15T13:43:33.896Z,100234.13
2023-04-15T13:46:00.904Z,100225.25
2023-04-15T13:48:28.326Z,100236.31
2023-04-15T13:50:55.267Z,100232.31
2023-04-15T13:53:21.839Z,100238.66
2023-04-15T13:56:04.524Z,100238.50
2023-04-15T13:58:30.900Z,100243.09
2023-04-15T14:00:57.111Z,100242.53
2023-04-15T14:03:23.758Z,100239.69
2023-04-15T14:05:55.183Z,100234.75
2023-04-15T14:08:22.689Z,100236.50
2023-04-15T14:10:49.313Z,100242.22
2023-04-15T14:13:16.300Z,100245.25
2023-04-15T14:15:42.508Z,100251.56
2023-04-15T14:18:09.197Z,100249.44
2023-04-15T14:20:35.561Z,100251.81
2023-04-15T14:23:02.093Z,100250.78
2023-04-15T14:25:33.781Z,100250.34
2023-04-15T14:28:02.674Z,100238.38
2023-04-15T14:30:28.952Z,100238.75
2023-04-15T14:32:55.697Z,100252.66
2023-04-15T14:35:24.084Z,100251.19
2023-04-15T14:37:50.799Z,100256.19
2023-04-15T14:40:16.973Z,100252.50
2023-04-15T14:42:43.489Z,100251.91
2023-04-15T14:45:10.174Z,100251.91
2023-04-15T14:47:36.902Z,100254.88
2023-04-15T14:50:03.774Z,100259.56
2023-04-15T14:52:38.031Z,100267.75
2023-04-15T14:55:09.667Z,100264.28
2023-04-15T14:57:42.500Z,100263.19
2023-04-15T15:00:10.740Z,100266.56
2023-04-15T15:02:40.228Z,100270.78
2023-04-15T15:05:08.296Z,100265.94
2023-04-15T15:07:36.356Z,100271.28
2023-04-15T15:10:03.269Z,100270.59
2023-04-15T15:12:29.694Z,100278.22
2023-04-15T15:14:57.879Z,100279.50
2023-04-15T15:17:24.504Z,100287.97
2023-04-15T15:19:50.821Z,100290.03
2023-04-15T15:22:19.418Z,100294.63
2023-04-15T15:24:47.160Z,100294.94
2023-04-15T15:27:13.777Z,100287.19
2023-04-15T15:29:40.016Z,100294.97
2023-04-15T15:32:06.509Z,100293.22
2023-04-15T15:34:33.056Z,100296.59
2023-04-15T15:37:00.126Z,100300.53
2023-04-15T15:39:27.112Z,100294.44
2023-04-15T15:41:53.853Z,100303.94
2023-04-15T15:44:20.415Z,100306.84
2023-04-15T15:46:47.339Z,100304.84
2023-04-15T15:49:13.870Z,100305.16
2023-04-15T15:51:40.400Z,100318.75
2023-04-15T15:54:06.922Z,100313.38
2023-04-15T15:56:34.338Z,100317.19
2023-04-15T15:59:00.754Z,100313.44
2023-04-15T16:01:27.348Z,100329.84
2023-04-15T16:03:54.197Z,100327.22
2023-04-15T16:06:20.857Z,100328.94
2023-04-15T16:08:47.083Z,100328.25
2023-04-15T16:11:14.081Z,100332.69
2023-04-15T16:13:40.297Z,100333.69
2023-04-15T16:16:07.442Z,100332.72
2023-04-15T16:18:35.272Z,100338.22
2023-04-15T16:21:02.004Z,100344.28
2023-04-15T16:23:28.264Z,100340.34
2023-04-15T16:25:54.694Z,100341.31
2023-04-15T16:28:26.826Z,100341.88
2023-04-15T16:30:54.672Z,100341.88
2023-04-15T16:33:21.103Z,100339.31
2023-04-15T16:35:50.542Z,100338.69
2023-04-15T16:38:18.002Z,100342.88
2023-04-15T16:40:45.547Z,100352.25
2023-04-15T16:43:11.891Z,100344.22
2023-04-15T16:45:38.681Z,100346.38
2023-04-15T16:48:05.325Z,100356.41
2023-04-15T16:50:31.902Z,100358.41
2023-04-15T16:52:58.059Z,100363.66
2023-04-15T16:55:24.655Z,100361.81
2023-04-15T16:58:01.819Z,100366.41
2023-04-15T17:00:34.731Z,100363.03
2023-04-15T17:03:01.506Z,100365.06
2023-04-15T17:05:30.085Z,100357.44
2023-04-15T17:07:56.456Z,100365.06
2023-04-15T17:10:23.078Z,100375.81
2023-04-15T17:12:51.263Z,100377.84
2023-04-15T17:15:18.911Z,100379.88
2023-04-15T17:17:45.201Z,100377.50
2023-04-15T17:20:11.950Z,100376.47
2023-04-15T17:22:38.222Z,100383.63
2023-04-15T17:25:05.494Z,100383.44
2023-04-15T17:27:31.929Z,100390.94
2023-04-15T17:29:58.600Z,100394.66
2023-04-15T17:32:30.912Z,100403.53
2023-04-15T17:34:57.705Z,100396.25
2023-04-15T17:37:23.993Z,100413.41
2023-04-15T17:39:51.387Z,100405.25
2023-04-15T17:42:17.754Z,100411.03
2023-04-15T17:44:45.088Z,100402.56
2023-04-15T17:47:12.442Z,100408.00
2023-04-15T17:49:39.058Z,100406.47
2023-04-15T17:52:05.730Z,100415.47
2023-04-15T17:54:32.293Z,100402.06
2023-04-15T17:56:59.476Z,100407.16
2023-04-15T17:59:26.922Z,100415.16
2023-04-15T18:01:53.308Z,100418.72
2023-04-15T18:04:20.110Z,100417.19
2023-04-15T18:06:46.867Z,100425.50
2023-04-15T18:09:13.486Z,100424.16
2023-04-15T18:11:40.225Z,100425.84
2023-04-15T18:14:06.876Z,100440.44
2023-04-15T18:16:33.351Z,100446.75
2023-04-15T18:19:00.477Z,100452.03
2023-04-15T18:21:26.860Z,100454.75
2023-04-15T18:23:53.662Z,100450.31
2023-04-15T18:26:21.016Z,100450.81
2023-04-15T18:28:47.795Z,100462.34
2023-04-15T18:31:14.083Z,100469.47
2023-04-15T18:33:40.831Z,100463.69
2023-04-15T18:36:07.414Z,100474.22
2023-04-15T18:38:34.557Z,100476.44
2023-04-15T18:41:01.124Z,100477.13
2023-04-15T18:43:27.848Z,100481.88
2023-04-15T18:45:54.735Z,100483.59
2023-04-15T18:48:21.450Z,100487.31
2023-04-15T18:50:48.358Z,100479.00
2023-04-15T18:53:15.624Z,100486.81
2023-04-15T18:55:42.221Z,100491.38
2023-04-15T18:58:09.374Z,100488.31
2023-04-15T19:00:39.973Z,100493.75
2023-04-15T19:03:07.319Z,100502.22
2023-04-15T19:05:33.820Z,100509.03
2023-04-15T19:08:00.736Z,100510.38
2023-04-15T19:10:29.968Z,100518.53
2023-04-15T19:12:56.622Z,100518.72
2023-04-15T19:15:22.866Z,100510.56
2023-04-15T19:17:49.676Z,100519.22
2023-04-15T19:20:16.301Z,100523.81
2023-04-15T19:22:44.152Z,100532.97
2023-04-15T19:25:10.360Z,100533.66
2023-04-15T19:27:39.977Z,100532.47
2023-04-15T19:30:07.444Z,100531.63
2023-04-15T19:32:35.702Z,100535.34
2023-04-15T19:35:02.499Z,100539.41
2023-04-15T19:37:29.398Z,100529.41
2023-04-15T19:39:56.135Z,100542.31
2023-04-15T19:42:22.790Z,100537.88
2023-04-15T19:44:49.275Z,100535.50
2023-04-15T19:47:16.072Z,100535.50
2023-04-15T19:49:42.809Z,100545.50
2023-04-15T19:52:09.485Z,100536.53
2023-04-15T19:54:35.897Z,100539.22
2023-04-15T19:57:02.910Z,100537.84
2023-04-15T19:59:29.409Z,100536.66
2023-04-15T20:01:56.540Z,100542.94
2023-04-15T20:04:22.998Z,100541.22
2023-04-15T20:06:49.757Z,100534.28
2023-04-15T20:09:17.115Z,100544.59
2023-04-15T20:12:44.908Z,100538.28
2023-04-15T20:14:30.839Z,100535.72
2023-04-15T20:16:57.744Z,100535.72
2023-04-15T20:19:24.118Z,100535.38
2023-04-15T20:21:52.494Z,100542.19
2023-04-15T20:24:20.796Z,100535.25
2023-04-15T20:26:47.400Z,100550.16
2023-04-15T20:29:13.914Z,100555.06
2023-04-15T20:31:40.730Z,100560.81
2023-04-15T20:34:07.820Z,100551.66
2023-04-15T20:36:36.399Z,100552.34
2023-04-15T20:39:02.867Z,100554.22
2023-04-15T20:41:29.767Z,100549.63
2023-04-15T20:43:55.950Z,100558.16
2023-04-15T20:46:22.764Z,100552.22
2023-04-15T20:48:50.344Z,100563.72
2023-04-15T20:51:16.820Z,100572.72
2023-04-15T20:53:42.954Z,100575.41
2023-04-15T20:56:09.653Z,100570.47
2023-04-15T20:58:36.051Z,100573.88
2023-04-15T21:01:02.917Z,100582.72
2023-04-15T21:03:29.275Z,100589.53
2023-04-15T21:05:56.023Z,100597.47
2023-04-15T21:08:28.813Z,100598.97
2023-04-15T21:10:56.197Z,100607.44
2023-04-15T21:13:23.084Z,100607.59
2023-04-15T21:15:52.657Z,100608.28
2023-04-15T21:18:20.371Z,100625.59
2023-04-15T21:20:55.355Z,100625.59
2023-04-15T21:23:21.648Z,100615.75
2023-04-15T21:25:48.280Z,100624.34
2023-04-15T21:28:17.120Z,100627.22
2023-04-15T21:30:45.058Z,100635.91
2023-04-15T21:33:11.374Z,100626.75
2023-04-15T21:35:38.125Z,100631.88
2023-04-15T21:38:04.331Z,100632.03
2023-04-15T21:40:30.835Z,100633.31
2023-04-15T21:42:57.039Z,100637.75
2023-04-15T21:45:23.623Z,100639.59
2023-04-15T21:48:04.962Z,100631.47
2023-04-15T21:50:36.461Z,100634.06
2023-04-15T21:53:03.627Z,100642.31
2023-04-15T21:55:29.977Z,100639.38
2023-04-15T21:57:56.110Z,100641.09
2023-04-15T22:00:23.499Z,100638.00
2023-04-15T22:02:50.347Z,100645.28
2023-04-15T22:05:16.875Z,100645.28
2023-04-15T22:07:43.360Z,100641.69
2023-04-15T22:10:09.984Z,100642.31
2023-04-15T22:12:36.317Z,100647.34
2023-04-15T22:15:03.157Z,100646.16
2023-04-15T22:17:29.354Z,100649.34
2023-04-15T22:19:55.817Z,100655.84
2023-04-15T22:22:21.864Z,100663.44
2023-04-15T22:24:53.505Z,100662.22
2023-04-15T22:27:19.553Z,100671.97
2023-04-15T22:29:46.133Z,100666.88
2023-04-15T22:32:12.495Z,100675.31
2023-04-15T22:34:39.088Z,100670.50
2023-04-15T22:37:05.976Z,100678.16
2023-04-15T22:39:32.465Z,100683.03
2023-04-15T22:41:58.555Z,100680.72
2023-04-15T22:44:24.943Z,100686.69
2023-04-15T22:46:51.297Z,100687.00
2023-04-15T22:49:17.851Z,100691.56
2023-04-15T22:51:44.019Z,100703.03
2023-04-15T22:54:10.467Z,100697.75
2023-04-15T22:56:36.512Z,100706.34
2023-04-15T22:59:02.926Z,100702.06
2023-04-15T23:01:31.142Z,100704.69
2023-04-15T23:04:06.000Z,100710.25
2023-04-15T23:06:35.989Z,100712.53
2023-04-15T23:09:02.456Z,100700.84
2023-04-15T23:11:28.859Z,100702.22
2023-04-15T23:13:55.829Z,100707.34
2023-04-15T23:16:22.326Z,100706.25
2023-04-15T23:18:48.749Z,100711.50
2023-04-15T23:21:15.121Z,100712.22
2023-04-15T23:23:41.790Z,100706.03
2023-04-15T23:26:07.819Z,100703.16
2023-04-15T23:28:34.157Z,100712.47
2023-04-15T23:31:00.697Z,100707.19
2023-04-15T23:33:27.150Z,100700.75
2023-04-15T23:35:53.415Z,100704.78
2023-04-15T23:38:20.932Z,100706.09
2023-04-15T23:40:47.223Z,100710.81
2023-04-15T23:43:13.701Z,100711.97
2023-04-15T23:45:39.889Z,100710.56
2023-04-15T23:48:06.308Z,100716.44
2023-04-15T23:50:32.377Z,100718.91
2023-04-15T23:52:58.993Z,100715.19
2023-04-15T23:55:25.732Z,100707.22
2023-04-15T23:57:52.489Z,100712.38
